Briefing drone pour Pleaux

Rechercher une autre localisation

Conditions de vol :


Nous sommes le : Samedi 28 mai 2022
Il est 19:18 UTC (21:18 LT)

Lever de soleil : 03:43 UTC (05:43 LT)
Coucher de soleil : 19:53 UTC (21:53 LT)

Météo

L'essentiel des conditions de vol

VIGILANCE MÉTÉO FRANCE - Cantal (15)
Pas de vigilances particulieres
METAR de LFLW
LFLW 281900Z AUTO 34006KT 300V010 CAVOK 17/06 Q1014 NOSIG

Date d'émission: 28/05/2022
Heure d'émission: 19:00 UTC
Vent: 340° (variable du 300° au 010°) pour 6 KT (11 km/h)
Visibilité horizontale: > 10 km
Plafond : Plafond et visibilité OK (CAVOK)
Température: 17 °C
Point de rosée: 6 °C
Humidité: 48%
Pression (QNH): 1014 hPa
Conditions: Pas de changement dans les 2 heures (NOSIG)
Prévision 24h pour Aurillac (18 km)
Vent : 338° pour 3 KT (10 km/h)
Temperature Maxi: 21 °C
Temperature Min: 21 °C
Humidité : 23%
Condition : Ciel dégagé



Warning: count(): Parameter must be an array or an object that implements Countable in /homepages/6/d509196549/htdocs/droneoxygene/briefing.php on line 743
WEBCAM POUR PLEAUX

Réglementation

Voler en sécurité

CARTES AERONAUTIQUE 1/500.000
CARTES VAC (LFLW)
SUP AIP




Chargement des AIP...
NOTAM (PLEAUX + Terrain à proximité / FIR )




Chargement des NOTAMS...
CONTACT PREFECTURE 15


Avertissement : Les données mises à disposition sont indicatives. Oxygène Drone ne pourra être tenu responsable de dégâts causés aux biens et aux personnes.